aviador You're here:

KRMG Decoded Metar

ROME in GA, USA
Report Time2018-07-22 13:53:00
UTC Time2018-07-22 14:22:48
Flight Rules vfr VFR
WindVRB at 04 kt
Visibility9999 m
Phenomena:N/A
Clouds:N/A
Expected CloudBase > 2,400 ft AGL from Temp-Dew spread
CeilingNone
Temp27°C (ISA +13)
Dew Point21°C (70% RH)
Heat Index28.9°C
QNH1010 hPa
Density Alt2,592 ft
Elevation633 ft
Report Wrong Elevation
Raw Report
METAR KRMG 221353Z AUTO VRB04KT 10SM CLR 27/21 A2983 RMK AO2 SLP088
T02670211=

Extra information for KRMG:More info

Metar Taf Metar & Taf Last 4 Metars F.Rules Stats Wind Profile Meteogram Temp Stats Airport Information Weather charts Add Link Nearby VenuesMetar ALERT Operation Metar Decoded Social comments

AIRNAV info for KRMG